Terminal Aerodrome Forecast
Issued by NWS

Home | Current Version | Previous Version | Graphics & Text | Print | Product List | Glossary On
Versions: 1 2 3 4 5 6 7 8 9 10 11 12 13 14 15 16
253
FTUS43 KTOP 221720
TAFFOE
TAF
KFOE 221720Z 2218/2318 16012KT P6SM SCT060 SCT250
     FM230400 15008KT P6SM BKN250 WS009/18035KT
     FM231400 17013KT P6SM VCTS SCT023 BKN035CB=

USA.gov is the U.S. government's official web portal to all federal, state and local government web resources and services.